createdAt,value
2023-01-07T00:01:44.166Z,87.52
2023-01-07T00:04:15.708Z,87.61
2023-01-07T00:06:45.202Z,87.61
2023-01-07T00:09:17.545Z,87.67
2023-01-07T00:11:45.941Z,87.68
2023-01-07T00:14:14.926Z,87.66
2023-01-07T00:16:43.723Z,87.76
2023-01-07T00:19:17.014Z,87.87
2023-01-07T00:21:44.802Z,87.54
2023-01-07T00:24:13.059Z,87.54
2023-01-07T00:26:41.483Z,87.74
2023-01-07T00:29:10.052Z,87.72
2023-01-07T00:31:41.072Z,87.67
2023-01-07T00:34:12.091Z,87.52
2023-01-07T00:36:47.493Z,87.68
2023-01-07T00:39:18.193Z,87.93
2023-01-07T00:42:04.689Z,88.01
2023-01-07T00:44:33.295Z,88.34
2023-01-07T00:47:01.193Z,88.42
2023-01-07T00:49:29.009Z,88.45
2023-01-07T00:51:56.768Z,88.49
2023-01-07T00:54:25.096Z,88.73
2023-01-07T00:56:52.916Z,88.94
2023-01-07T00:59:20.757Z,89.12
2023-01-07T01:01:48.733Z,89.12
2023-01-07T01:04:16.545Z,89.15
2023-01-07T01:06:44.645Z,89.42
2023-01-07T01:09:12.396Z,89.43
2023-01-07T01:11:40.097Z,89.49
2023-01-07T01:14:07.797Z,89.60
2023-01-07T01:16:35.603Z,89.69
2023-01-07T01:19:03.401Z,89.86
2023-01-07T01:21:31.106Z,89.80
2023-01-07T01:23:58.768Z,89.82
2023-01-07T01:26:26.431Z,89.93
2023-01-07T01:28:54.151Z,89.98
2023-01-07T01:31:21.901Z,89.99
2023-01-07T01:33:49.682Z,90.01
2023-01-07T01:36:17.419Z,90.21
2023-01-07T01:38:45.115Z,90.07
2023-01-07T01:41:17.350Z,90.71
2023-01-07T01:43:48.507Z,90.51
2023-01-07T01:46:18.842Z,90.70
2023-01-07T01:48:52.467Z,90.54
2023-01-07T01:51:23.391Z,90.88
2023-01-07T01:53:52.242Z,91.02
2023-01-07T01:56:30.809Z,90.97
2023-01-07T01:59:03.916Z,91.55
2023-01-07T02:01:34.078Z,91.43
2023-01-07T02:04:05.744Z,91.71
2023-01-07T02:06:37.563Z,91.67
2023-01-07T02:09:05.966Z,91.87
2023-01-07T02:11:48.464Z,92.05
2023-01-07T02:14:34.247Z,92.19
2023-01-07T02:17:28.883Z,92.33
2023-01-07T02:20:08.994Z,92.45
2023-01-07T02:23:18.258Z,92.20
2023-01-07T02:26:08.808Z,92.09
2023-01-07T02:28:51.367Z,92.19
2023-01-07T02:32:06.443Z,92.01
2023-01-07T02:34:43.218Z,91.98
2023-01-07T02:37:16.629Z,91.96
2023-01-07T02:40:13.548Z,91.99
2023-01-07T02:42:58.478Z,91.72
2023-01-07T02:45:33.261Z,91.84
2023-01-07T02:48:09.415Z,91.84
2023-01-07T02:50:37.130Z,91.70
2023-01-07T02:53:06.589Z,91.61
2023-01-07T02:56:02.263Z,91.54
2023-01-07T02:58:51.740Z,91.48
2023-01-07T03:01:28.706Z,91.36
2023-01-07T03:04:07.625Z,91.32
2023-01-07T03:07:00.690Z,91.33
2023-01-07T03:09:38.732Z,91.22
2023-01-07T03:12:14.523Z,91.20
2023-01-07T03:14:48.361Z,91.09
2023-01-07T03:17:21.894Z,91.05
2023-01-07T03:19:56.123Z,91.04
2023-01-07T03:22:27.056Z,91.03
2023-01-07T03:24:57.909Z,91.09
2023-01-07T03:27:28.659Z,90.88
2023-01-07T03:29:57.200Z,90.70
2023-01-07T03:32:33.436Z,90.79
2023-01-07T03:35:01.276Z,90.62
2023-01-07T03:37:29.771Z,90.60
2023-01-07T03:39:58.490Z,90.46
2023-01-07T03:42:41.779Z,90.37
2023-01-07T03:45:21.971Z,90.36
2023-01-07T03:47:52.167Z,90.21
2023-01-07T03:50:21.097Z,90.10
2023-01-07T03:52:52.263Z,90.13
2023-01-07T03:55:20.470Z,90.05
2023-01-07T03:57:48.213Z,90.01
2023-01-07T04:00:16.953Z,89.98
2023-01-07T04:02:44.838Z,89.91
2023-01-07T04:05:12.686Z,90.03
2023-01-07T04:07:40.455Z,89.99
2023-01-07T04:10:09.861Z,89.99
2023-01-07T04:12:37.974Z,89.97
2023-01-07T04:15:06.786Z,89.85
2023-01-07T04:17:34.752Z,89.82
2023-01-07T04:20:02.440Z,89.77
2023-01-07T04:22:30.116Z,89.79
2023-01-07T04:24:59.037Z,89.87
2023-01-07T04:27:26.753Z,89.96
2023-01-07T04:29:54.485Z,90.03
2023-01-07T04:32:22.137Z,90.10
2023-01-07T04:34:49.734Z,90.07
2023-01-07T04:37:17.396Z,90.10
2023-01-07T04:39:45.088Z,90.37
2023-01-07T04:42:12.783Z,90.42
2023-01-07T04:44:40.500Z,90.35
2023-01-07T04:47:08.217Z,90.45
2023-01-07T04:49:35.936Z,90.72
2023-01-07T04:52:05.077Z,90.70
2023-01-07T04:54:32.842Z,90.75
2023-01-07T04:57:00.517Z,90.60
2023-01-07T04:59:28.219Z,90.93
2023-01-07T05:01:55.984Z,90.96
2023-01-07T05:04:23.876Z,91.09
2023-01-07T05:06:51.607Z,91.09
2023-01-07T05:09:19.310Z,91.18
2023-01-07T05:11:47.080Z,91.14
2023-01-07T05:14:14.817Z,91.08
2023-01-07T05:16:42.624Z,91.33
2023-01-07T05:19:11.776Z,91.27
2023-01-07T05:21:39.889Z,91.27
2023-01-07T05:24:07.763Z,91.43
2023-01-07T05:26:35.949Z,91.51
2023-01-07T05:29:03.796Z,91.83
2023-01-07T05:31:31.564Z,91.71
2023-01-07T05:33:59.284Z,91.60
2023-01-07T05:36:26.947Z,91.87
2023-01-07T05:38:54.691Z,91.80
2023-01-07T05:41:22.545Z,91.64
2023-01-07T05:43:50.639Z,91.87
2023-01-07T05:46:18.414Z,91.74
2023-01-07T05:48:46.097Z,91.74
2023-01-07T05:51:13.712Z,91.84
2023-01-07T05:53:41.409Z,91.77
2023-01-07T05:56:09.031Z,91.97
2023-01-07T05:58:36.727Z,92.10
2023-01-07T06:01:04.716Z,92.06
2023-01-07T06:03:32.599Z,92.13
2023-01-07T06:06:00.385Z,92.17
2023-01-07T06:08:28.107Z,92.40
2023-01-07T06:10:55.929Z,92.15
2023-01-07T06:13:23.663Z,92.02
2023-01-07T06:15:51.373Z,92.34
2023-01-07T06:18:19.245Z,92.27
2023-01-07T06:20:46.936Z,92.23
2023-01-07T06:23:14.741Z,92.14
2023-01-07T06:25:42.481Z,92.20
2023-01-07T06:28:10.208Z,92.02
2023-01-07T06:30:37.962Z,92.13
2023-01-07T06:33:08.919Z,92.34
2023-01-07T06:35:36.667Z,92.11
2023-01-07T06:38:04.473Z,92.27
2023-01-07T06:40:32.404Z,92.19
2023-01-07T06:43:00.107Z,92.21
2023-01-07T06:45:27.950Z,92.09
2023-01-07T06:47:58.384Z,91.97
2023-01-07T06:50:26.527Z,91.97
2023-01-07T06:52:54.397Z,92.33
2023-01-07T06:55:22.084Z,92.38
2023-01-07T06:57:49.909Z,92.35
2023-01-07T07:00:17.972Z,91.88
2023-01-07T07:02:45.743Z,91.75
2023-01-07T07:05:13.582Z,91.81
2023-01-07T07:07:41.387Z,91.75
2023-01-07T07:10:10.107Z,91.69
2023-01-07T07:12:39.073Z,91.63
2023-01-07T07:15:08.749Z,91.71
2023-01-07T07:17:36.578Z,91.30
2023-01-07T07:20:05.254Z,91.36
2023-01-07T07:22:32.963Z,91.49
2023-01-07T07:25:00.599Z,91.26
2023-01-07T07:27:28.430Z,91.33
2023-01-07T07:29:56.187Z,91.29
2023-01-07T07:32:29.367Z,91.29
2023-01-07T07:34:57.521Z,91.39
2023-01-07T07:37:25.225Z,91.47
2023-01-07T07:39:53.005Z,91.51
2023-01-07T07:42:20.676Z,91.41
2023-01-07T07:44:48.366Z,91.39
2023-01-07T07:47:16.049Z,91.55
2023-01-07T07:49:43.797Z,91.67
2023-01-07T07:52:11.569Z,91.38
2023-01-07T07:54:39.283Z,91.52
2023-01-07T07:57:07.080Z,91.38
2023-01-07T07:59:35.017Z,91.46
2023-01-07T08:02:03.125Z,91.36
2023-01-07T08:04:35.166Z,91.21
2023-01-07T08:07:03.308Z,91.18
2023-01-07T08:09:30.987Z,91.00
2023-01-07T08:11:58.744Z,90.94
2023-01-07T08:14:26.408Z,90.84
2023-01-07T08:16:54.260Z,90.81
2023-01-07T08:19:21.971Z,90.71
2023-01-07T08:21:50.280Z,90.54
2023-01-07T08:24:18.168Z,90.51
2023-01-07T08:26:45.820Z,90.44
2023-01-07T08:29:13.586Z,90.34
2023-01-07T08:31:41.311Z,90.13
2023-01-07T08:34:09.052Z,89.98
2023-01-07T08:36:36.741Z,89.19
2023-01-07T08:39:04.492Z,89.63
2023-01-07T08:41:32.229Z,89.62
2023-01-07T08:43:59.982Z,89.54
2023-01-07T08:46:27.722Z,89.28
2023-01-07T08:48:55.485Z,88.99
2023-01-07T08:51:23.167Z,88.99
2023-01-07T08:53:50.917Z,88.89
2023-01-07T08:56:18.649Z,88.73
2023-01-07T08:58:46.338Z,88.47
2023-01-07T09:01:14.116Z,88.40
2023-01-07T09:03:42.173Z,88.24
2023-01-07T09:06:10.178Z,88.08
2023-01-07T09:08:37.949Z,88.04
2023-01-07T09:11:05.721Z,87.77
2023-01-07T09:13:33.415Z,87.60
2023-01-07T09:16:01.376Z,87.32
2023-01-07T09:18:29.227Z,87.15
2023-01-07T09:20:56.916Z,87.09
2023-01-07T09:23:24.602Z,86.84
2023-01-07T09:25:52.290Z,86.82
2023-01-07T09:28:19.953Z,86.57
2023-01-07T09:30:47.702Z,86.53
2023-01-07T09:33:15.417Z,86.47
2023-01-07T09:35:43.165Z,86.28
2023-01-07T09:38:10.913Z,86.28
2023-01-07T09:40:41.263Z,86.09
2023-01-07T09:44:00.176Z,85.95
2023-01-07T09:46:25.177Z,85.93
2023-01-07T09:48:58.964Z,85.25
2023-01-07T09:51:33.546Z,85.44
2023-01-07T09:54:04.199Z,85.27
2023-01-07T09:56:34.476Z,85.08
2023-01-07T09:59:03.353Z,84.85
2023-01-07T10:01:34.031Z,84.66
2023-01-07T10:04:17.870Z,84.25
2023-01-07T10:06:52.463Z,82.84
2023-01-07T10:09:55.667Z,83.16
2023-01-07T10:12:23.357Z,82.94
2023-01-07T10:14:54.009Z,81.84
2023-01-07T10:17:30.696Z,81.14
2023-01-07T10:20:23.244Z,80.54
2023-01-07T10:23:12.821Z,78.55
2023-01-07T10:25:48.631Z,78.72
2023-01-07T10:28:21.750Z,79.40
2023-01-07T10:30:54.845Z,80.64
2023-01-07T10:33:30.814Z,74.08
2023-01-07T10:36:11.682Z,81.23
2023-01-07T10:38:43.461Z,78.27
2023-01-07T10:41:28.076Z,77.98
2023-01-07T10:44:03.944Z,77.46
2023-01-07T10:46:56.719Z,76.16
2023-01-07T10:49:39.184Z,75.33
2023-01-07T10:52:10.066Z,74.87
2023-01-07T10:55:25.960Z,74.75
2023-01-07T10:57:53.823Z,74.85
2023-01-07T11:00:21.736Z,71.70
2023-01-07T11:02:57.608Z,72.80
2023-01-07T11:05:29.636Z,72.99
2023-01-07T11:08:00.604Z,74.00
2023-01-07T11:10:37.626Z,74.79
2023-01-07T11:13:16.722Z,74.79
2023-01-07T11:15:53.720Z,72.68
2023-01-07T11:18:31.287Z,72.22
2023-01-07T11:21:00.640Z,71.92
2023-01-07T11:23:39.651Z,71.67
2023-01-07T11:26:24.437Z,72.58
2023-01-07T11:28:56.560Z,72.40
2023-01-07T11:31:45.372Z,72.53
2023-01-07T11:34:27.890Z,73.15
2023-01-07T11:36:55.927Z,71.60
2023-01-07T11:39:32.918Z,71.94
2023-01-07T11:42:38.914Z,71.89
2023-01-07T11:45:20.778Z,72.69
2023-01-07T11:48:09.796Z,72.31
2023-01-07T11:50:39.427Z,71.62
2023-01-07T11:53:29.043Z,72.06
2023-01-07T11:56:07.422Z,71.87
2023-01-07T11:58:38.975Z,71.57
2023-01-07T12:01:06.810Z,71.20
2023-01-07T12:03:36.127Z,71.04
2023-01-07T12:06:34.656Z,71.34
2023-01-07T12:09:23.884Z,71.45
2023-01-07T12:11:53.630Z,71.45
2023-01-07T12:14:40.351Z,71.09
2023-01-07T12:17:12.651Z,70.44
2023-01-07T12:20:09.335Z,71.35
2023-01-07T12:22:50.146Z,71.21
2023-01-07T12:25:36.117Z,71.62
2023-01-07T12:28:14.780Z,71.71
2023-01-07T12:31:12.881Z,71.66
2023-01-07T12:34:05.871Z,71.44
2023-01-07T12:36:44.094Z,71.08
2023-01-07T12:39:32.220Z,70.43
2023-01-07T12:42:06.189Z,70.47
2023-01-07T12:44:37.835Z,71.30
2023-01-07T12:47:31.056Z,71.66
2023-01-07T12:50:36.486Z,71.62
2023-01-07T12:53:18.045Z,70.63
2023-01-07T12:55:51.257Z,71.30
2023-01-07T12:58:47.517Z,69.94
2023-01-07T13:01:21.953Z,70.07
2023-01-07T13:04:08.291Z,70.76
2023-01-07T13:06:39.488Z,71.03
2023-01-07T13:09:23.313Z,71.50
2023-01-07T13:12:40.937Z,70.56
2023-01-07T13:15:10.980Z,71.34
2023-01-07T13:17:38.670Z,71.56
2023-01-07T13:20:19.232Z,71.59
2023-01-07T13:22:56.050Z,71.26
2023-01-07T13:26:02.255Z,70.85
2023-01-07T13:28:39.729Z,70.76
2023-01-07T13:31:19.702Z,70.02
2023-01-07T13:34:44.489Z,70.31
2023-01-07T13:37:43.869Z,69.83
2023-01-07T13:40:27.062Z,70.47
2023-01-07T13:43:13.180Z,70.92
2023-01-07T13:45:42.353Z,70.54
2023-01-07T13:48:23.503Z,71.01
2023-01-07T13:50:58.680Z,70.58
2023-01-07T13:53:26.355Z,70.68
2023-01-07T13:56:19.787Z,70.92
2023-01-07T13:58:50.994Z,70.89
2023-01-07T14:01:29.621Z,71.48
2023-01-07T14:03:59.822Z,71.56
2023-01-07T14:06:30.551Z,71.84
2023-01-07T14:09:35.047Z,72.03
2023-01-07T14:12:33.431Z,72.18
2023-01-07T14:15:16.447Z,72.46
2023-01-07T14:18:02.854Z,72.84
2023-01-07T14:20:52.653Z,73.24
2023-01-07T14:23:29.525Z,73.76
2023-01-07T14:26:26.334Z,73.80
2023-01-07T14:29:35.885Z,74.30
2023-01-07T14:32:33.162Z,75.06
2023-01-07T14:35:08.002Z,75.37
2023-01-07T14:37:49.644Z,75.73
2023-01-07T14:40:50.781Z,76.21
2023-01-07T14:43:46.655Z,77.15
2023-01-07T14:46:23.592Z,77.69
2023-01-07T14:49:03.489Z,77.78
2023-01-07T14:51:55.439Z,78.48
2023-01-07T14:54:48.616Z,78.52
2023-01-07T14:57:22.311Z,80.29
2023-01-07T15:00:27.822Z,79.80
2023-01-07T15:03:15.138Z,80.03
2023-01-07T15:06:04.357Z,80.21
2023-01-07T15:09:07.787Z,80.44
2023-01-07T15:11:55.840Z,80.57
2023-01-07T15:14:51.847Z,80.55
2023-01-07T15:17:20.108Z,80.97
2023-01-07T15:19:47.816Z,81.07
2023-01-07T15:22:37.458Z,81.32
2023-01-07T15:25:33.481Z,82.01
2023-01-07T15:28:14.281Z,82.24
2023-01-07T15:30:56.465Z,82.13
2023-01-07T15:33:40.180Z,82.25
2023-01-07T15:36:12.416Z,82.38
2023-01-07T15:38:49.588Z,82.28
2023-01-07T15:41:26.768Z,82.61
2023-01-07T15:43:54.917Z,82.66
2023-01-07T15:46:24.233Z,82.79
2023-01-07T15:49:10.013Z,82.91
2023-01-07T15:51:42.754Z,83.01
2023-01-07T15:54:29.395Z,83.14
2023-01-07T15:57:01.741Z,83.22
2023-01-07T15:59:33.172Z,83.17
2023-01-07T16:02:27.153Z,83.10
2023-01-07T16:04:59.816Z,83.44
2023-01-07T16:07:50.626Z,83.39
2023-01-07T16:10:23.833Z,83.58
2023-01-07T16:12:54.347Z,83.53
2023-01-07T16:15:23.149Z,83.52
2023-01-07T16:17:56.367Z,83.60
2023-01-07T16:20:37.333Z,84.07
2023-01-07T16:23:11.349Z,84.15
2023-01-07T16:25:45.297Z,84.13
2023-01-07T16:28:23.416Z,83.92
2023-01-07T16:30:53.094Z,84.05
2023-01-07T16:33:24.320Z,84.04
2023-01-07T16:35:56.522Z,84.05
2023-01-07T16:38:25.003Z,84.18
2023-01-07T16:40:53.580Z,84.29
2023-01-07T16:43:41.447Z,84.40
2023-01-07T16:46:24.580Z,84.41
2023-01-07T16:49:10.917Z,84.34
2023-01-07T16:51:46.141Z,84.33
2023-01-07T16:54:25.880Z,84.28
2023-01-07T16:57:02.731Z,84.33
2023-01-07T16:59:36.171Z,84.11
2023-01-07T17:02:32.275Z,84.29
2023-01-07T17:05:19.541Z,84.51
2023-01-07T17:07:54.679Z,84.76
2023-01-07T17:10:37.499Z,84.56
2023-01-07T17:13:06.701Z,84.57
2023-01-07T17:15:38.133Z,84.87
2023-01-07T17:18:17.673Z,84.90
2023-01-07T17:20:51.603Z,85.18
2023-01-07T17:23:43.321Z,85.32
2023-01-07T17:26:30.332Z,85.50
2023-01-07T17:29:14.019Z,85.76
2023-01-07T17:31:41.876Z,85.50
2023-01-07T17:34:17.174Z,85.74
2023-01-07T17:36:44.995Z,85.76
2023-01-07T17:39:13.032Z,85.69
2023-01-07T17:41:59.183Z,85.78
2023-01-07T17:44:26.998Z,85.96
2023-01-07T17:46:54.681Z,85.95
2023-01-07T17:49:22.597Z,86.05
2023-01-07T17:51:52.201Z,86.23
2023-01-07T17:54:24.796Z,86.17
2023-01-07T17:56:53.488Z,86.29
2023-01-07T17:59:23.880Z,86.09
2023-01-07T18:01:54.028Z,86.28
2023-01-07T18:04:22.653Z,86.46
2023-01-07T18:06:50.382Z,86.43
2023-01-07T18:09:18.084Z,86.42
2023-01-07T18:12:05.995Z,86.75
2023-01-07T18:14:33.821Z,86.75
2023-01-07T18:17:01.673Z,86.80
2023-01-07T18:19:29.392Z,86.72
2023-01-07T18:21:57.125Z,86.66
2023-01-07T18:24:25.112Z,86.73
2023-01-07T18:26:55.078Z,87.13
2023-01-07T18:29:24.034Z,87.06
2023-01-07T18:31:51.832Z,86.98
2023-01-07T18:34:19.777Z,87.06
2023-01-07T18:36:47.948Z,87.62
2023-01-07T18:39:19.520Z,87.34
2023-01-07T18:41:51.155Z,87.50
2023-01-07T18:44:20.517Z,87.32
2023-01-07T18:46:48.598Z,87.32
2023-01-07T18:49:16.329Z,87.67
2023-01-07T18:51:46.176Z,87.94
2023-01-07T18:54:13.914Z,87.94
2023-01-07T18:56:41.635Z,87.95
2023-01-07T18:59:10.395Z,88.35
2023-01-07T19:01:38.179Z,88.13
2023-01-07T19:04:07.689Z,88.26
2023-01-07T19:06:35.502Z,88.14
2023-01-07T19:09:03.192Z,88.30
2023-01-07T19:11:31.005Z,88.35
2023-01-07T19:13:58.715Z,88.28
2023-01-07T19:16:26.533Z,88.64
2023-01-07T19:18:54.313Z,88.49
2023-01-07T19:21:22.542Z,89.00
2023-01-07T19:23:50.389Z,89.03
2023-01-07T19:26:18.104Z,88.85
2023-01-07T19:28:46.220Z,88.76
2023-01-07T19:31:14.763Z,88.94
2023-01-07T19:33:42.561Z,88.58
2023-01-07T19:36:12.419Z,89.03
2023-01-07T19:38:47.421Z,88.62
2023-01-07T19:41:18.200Z,89.18
2023-01-07T19:43:47.540Z,89.00
2023-01-07T19:46:16.617Z,88.67
2023-01-07T19:48:44.859Z,88.77
2023-01-07T19:51:12.672Z,88.89
2023-01-07T19:53:40.856Z,89.00
2023-01-07T19:56:11.361Z,89.05
2023-01-07T19:58:40.197Z,88.95
2023-01-07T20:01:13.861Z,88.97
2023-01-07T20:03:41.660Z,89.21
2023-01-07T20:06:12.533Z,89.49
2023-01-07T20:11:09.285Z,89.76
2023-01-07T20:13:38.685Z,89.89
2023-01-07T20:16:06.713Z,89.91
2023-01-07T20:18:46.257Z,89.73
2023-01-07T20:21:16.943Z,89.72
2023-01-07T20:23:45.461Z,89.87
2023-01-07T20:26:16.808Z,89.90
2023-01-07T20:28:44.779Z,90.28
2023-01-07T20:31:15.700Z,90.41
2023-01-07T20:33:45.924Z,89.90
2023-01-07T20:36:17.101Z,90.36
2023-01-07T20:38:46.529Z,90.23
2023-01-07T20:41:17.229Z,90.06
2023-01-07T20:43:45.076Z,90.45
2023-01-07T20:46:12.897Z,90.18
2023-01-07T20:48:41.180Z,90.20
2023-01-07T20:51:13.318Z,90.20
2023-01-07T20:53:41.439Z,90.08
2023-01-07T20:56:09.472Z,90.26
2023-01-07T20:58:38.714Z,89.95
2023-01-07T21:01:10.224Z,89.97
2023-01-07T21:03:39.532Z,89.62
2023-01-07T21:06:09.956Z,89.84
2023-01-07T21:08:38.442Z,89.60
2023-01-07T21:13:57.227Z,89.26
2023-01-07T21:16:25.874Z,89.31
2023-01-07T21:18:53.636Z,89.40
2023-01-07T21:21:26.156Z,88.96
2023-01-07T21:23:55.315Z,88.85
2023-01-07T21:26:23.903Z,88.90
2023-01-07T21:28:56.743Z,88.87
2023-01-07T21:31:25.075Z,88.81
2023-01-07T21:33:56.725Z,89.02
2023-01-07T21:36:25.878Z,88.66
2023-01-07T21:38:56.322Z,88.72
2023-01-07T21:41:25.348Z,88.78
2023-01-07T21:43:53.174Z,89.40
2023-01-07T21:46:23.527Z,89.15
2023-01-07T21:48:53.105Z,89.29
2023-01-07T21:51:23.722Z,89.54
2023-01-07T21:53:56.681Z,89.48
2023-01-07T21:56:26.614Z,89.73
2023-01-07T21:58:54.428Z,89.57
2023-01-07T22:01:22.644Z,89.62
2023-01-07T22:03:50.745Z,89.79
2023-01-07T22:06:24.202Z,89.65
2023-01-07T22:08:56.407Z,89.55
